sensor_id;sensor_type;location;lat;lon;timestamp;pressure;altitude;pressure_sealevel;temperature;humidity
6096;BME280;25081;42.698;23.298;2023-05-01T00:00:03;95231.27;;;11.13;74.37
6096;BME280;25081;42.698;23.298;2023-05-01T00:02:14;95236.53;;;11.10;74.14
6096;BME280;25081;42.698;23.298;2023-05-01T00:04:24;95229.77;;;11.08;74.40
6096;BME280;25081;42.698;23.298;2023-05-01T00:06:35;95239.33;;;11.06;74.39
6096;BME280;25081;42.698;23.298;2023-05-01T00:08:46;95234.81;;;11.07;74.37
6096;BME280;25081;42.698;23.298;2023-05-01T00:10:56;95231.20;;;11.10;74.36
6096;BME280;25081;42.698;23.298;2023-05-01T00:13:07;95234.05;;;11.00;74.55
6096;BME280;25081;42.698;23.298;2023-05-01T00:15:18;95235.19;;;11.01;74.61
6096;BME280;25081;42.698;23.298;2023-05-01T00:17:29;95233.99;;;11.06;74.44
6096;BME280;25081;42.698;23.298;2023-05-01T00:19:39;95233.98;;;10.97;74.66
6096;BME280;25081;42.698;23.298;2023-05-01T00:21:50;95231.70;;;10.92;74.93
6096;BME280;25081;42.698;23.298;2023-05-01T00:24:00;95229.23;;;10.90;75.46
6096;BME280;25081;42.698;23.298;2023-05-01T00:26:11;95233.03;;;10.92;75.25
6096;BME280;25081;42.698;23.298;2023-05-01T00:28:21;95231.08;;;10.89;75.18
6096;BME280;25081;42.698;23.298;2023-05-01T00:30:33;95233.09;;;10.85;75.66
6096;BME280;25081;42.698;23.298;2023-05-01T00:32:43;95237.25;;;10.81;75.86
6096;BME280;25081;42.698;23.298;2023-05-01T00:34:54;95238.12;;;10.75;76.31
6096;BME280;25081;42.698;23.298;2023-05-01T00:37:05;95243.16;;;10.74;76.22
6096;BME280;25081;42.698;23.298;2023-05-01T00:39:16;95246.34;;;10.73;75.94
6096;BME280;25081;42.698;23.298;2023-05-01T00:41:26;95247.20;;;10.67;76.41
6096;BME280;25081;42.698;23.298;2023-05-01T00:43:37;95261.05;;;10.67;76.54
6096;BME280;25081;42.698;23.298;2023-05-01T00:45:47;95249.73;;;10.62;76.54
6096;BME280;25081;42.698;23.298;2023-05-01T00:47:58;95254.55;;;10.63;76.47
6096;BME280;25081;42.698;23.298;2023-05-01T00:50:10;95258.59;;;10.56;76.69
6096;BME280;25081;42.698;23.298;2023-05-01T00:52:20;95257.70;;;10.53;77.26
6096;BME280;25081;42.698;23.298;2023-05-01T00:54:31;95262.59;;;10.56;77.23
6096;BME280;25081;42.698;23.298;2023-05-01T00:56:41;95258.73;;;10.61;76.98
6096;BME280;25081;42.698;23.298;2023-05-01T00:58:52;95263.36;;;10.63;76.74
6096;BME280;25081;42.698;23.298;2023-05-01T01:01:03;95258.84;;;10.64;76.62
6096;BME280;25081;42.698;23.298;2023-05-01T01:03:15;95267.77;;;10.60;76.74
6096;BME280;25081;42.698;23.298;2023-05-01T01:05:26;95263.92;;;10.56;76.95
6096;BME280;25081;42.698;23.298;2023-05-01T01:07:40;95264.66;;;10.54;77.06
6096;BME280;25081;42.698;23.298;2023-05-01T01:09:56;95269.14;;;10.44;77.10
6096;BME280;25081;42.698;23.298;2023-05-01T01:12:12;95266.38;;;10.42;77.55
6096;BME280;25081;42.698;23.298;2023-05-01T01:14:22;95267.71;;;10.42;77.93
6096;BME280;25081;42.698;23.298;2023-05-01T01:16:33;95263.38;;;10.47;78.09
6096;BME280;25081;42.698;23.298;2023-05-01T01:18:46;95268.92;;;10.46;78.03
6096;BME280;25081;42.698;23.298;2023-05-01T01:20:56;95277.88;;;10.51;77.88
6096;BME280;25081;42.698;23.298;2023-05-01T01:23:28;95268.78;;;10.50;77.44
6096;BME280;25081;42.698;23.298;2023-05-01T01:31:16;95273.89;;;10.26;79.22
6096;BME280;25081;42.698;23.298;2023-05-01T01:36:14;95284.20;;;10.10;79.28
6096;BME280;25081;42.698;23.298;2023-05-01T01:38:22;95284.67;;;10.00;80.00
6096;BME280;25081;42.698;23.298;2023-05-01T01:40:34;95283.70;;;9.94;80.33
6096;BME280;25081;42.698;23.298;2023-05-01T01:42:45;95286.77;;;9.91;80.47
6096;BME280;25081;42.698;23.298;2023-05-01T01:44:57;95284.63;;;9.91;80.39
6096;BME280;25081;42.698;23.298;2023-05-01T01:47:07;95279.00;;;9.90;80.26
6096;BME280;25081;42.698;23.298;2023-05-01T01:49:18;95287.18;;;9.95;80.39
6096;BME280;25081;42.698;23.298;2023-05-01T01:51:27;95281.34;;;9.95;80.55
6096;BME280;25081;42.698;23.298;2023-05-01T01:53:38;95282.67;;;9.95;80.49
6096;BME280;25081;42.698;23.298;2023-05-01T01:55:48;95274.41;;;9.88;80.56
6096;BME280;25081;42.698;23.298;2023-05-01T01:57:59;95271.97;;;9.86;80.76
6096;BME280;25081;42.698;23.298;2023-05-01T02:00:11;95276.06;;;9.82;81.58
6096;BME280;25081;42.698;23.298;2023-05-01T02:02:22;95269.77;;;9.77;82.22
6096;BME280;25081;42.698;23.298;2023-05-01T02:04:33;95272.23;;;9.71;82.34
6096;BME280;25081;42.698;23.298;2023-05-01T02:06:43;95270.38;;;9.72;82.30
6096;BME280;25081;42.698;23.298;2023-05-01T02:08:54;95269.05;;;9.72;82.39
6096;BME280;25081;42.698;23.298;2023-05-01T02:11:04;95270.90;;;9.71;82.40
6096;BME280;25081;42.698;23.298;2023-05-01T02:13:15;95267.72;;;9.72;82.15
6096;BME280;25081;42.698;23.298;2023-05-01T02:15:26;95269.41;;;9.66;82.38
6096;BME280;25081;42.698;23.298;2023-05-01T02:17:37;95268.37;;;9.67;82.38
6096;BME280;25081;42.698;23.298;2023-05-01T02:19:47;95267.90;;;9.55;82.58
6096;BME280;25081;42.698;23.298;2023-05-01T02:21:58;95270.03;;;9.39;83.13
6096;BME280;25081;42.698;23.298;2023-05-01T02:24:08;95271.38;;;9.33;83.27
6096;BME280;25081;42.698;23.298;2023-05-01T02:26:19;95271.90;;;9.26;83.51
6096;BME280;25081;42.698;23.298;2023-05-01T02:28:30;95274.26;;;9.25;83.89
6096;BME280;25081;42.698;23.298;2023-05-01T02:30:40;95278.33;;;9.34;83.92
6096;BME280;25081;42.698;23.298;2023-05-01T02:32:51;95282.73;;;9.37;83.53
6096;BME280;25081;42.698;23.298;2023-05-01T02:35:02;95275.44;;;9.42;83.63
6096;BME280;25081;42.698;23.298;2023-05-01T02:37:13;95274.48;;;9.45;83.74
6096;BME280;25081;42.698;23.298;2023-05-01T02:39:23;95271.73;;;9.50;83.69
6096;BME280;25081;42.698;23.298;2023-05-01T02:41:35;95277.05;;;9.50;83.50
6096;BME280;25081;42.698;23.298;2023-05-01T02:43:46;95273.16;;;9.45;82.91
6096;BME280;25081;42.698;23.298;2023-05-01T02:45:56;95279.20;;;9.43;83.18
6096;BME280;25081;42.698;23.298;2023-05-01T02:48:08;95276.55;;;9.43;83.16
6096;BME280;25081;42.698;23.298;2023-05-01T02:50:18;95278.52;;;9.39;82.97
6096;BME280;25081;42.698;23.298;2023-05-01T02:52:29;95277.30;;;9.35;83.39
6096;BME280;25081;42.698;23.298;2023-05-01T02:54:40;95274.33;;;9.34;83.81
6096;BME280;25081;42.698;23.298;2023-05-01T02:56:50;95283.43;;;9.35;83.94
6096;BME280;25081;42.698;23.298;2023-05-01T02:59:01;95282.61;;;9.35;83.89
6096;BME280;25081;42.698;23.298;2023-05-01T03:01:11;95281.98;;;9.17;84.12
6096;BME280;25081;42.698;23.298;2023-05-01T03:03:22;95285.34;;;9.15;84.87
6096;BME280;25081;42.698;23.298;2023-05-01T03:05:33;95282.29;;;9.11;85.34
6096;BME280;25081;42.698;23.298;2023-05-01T03:07:43;95277.79;;;9.05;85.68
6096;BME280;25081;42.698;23.298;2023-05-01T03:09:54;95280.58;;;9.01;85.67
6096;BME280;25081;42.698;23.298;2023-05-01T03:12:05;95285.90;;;8.95;85.92
6096;BME280;25081;42.698;23.298;2023-05-01T03:14:16;95288.16;;;8.91;85.62
6096;BME280;25081;42.698;23.298;2023-05-01T03:16:27;95292.06;;;8.82;85.92
6096;BME280;25081;42.698;23.298;2023-05-01T03:18:38;95292.78;;;8.73;86.83
6096;BME280;25081;42.698;23.298;2023-05-01T03:20:55;95289.09;;;8.74;87.06
6096;BME280;25081;42.698;23.298;2023-05-01T03:23:06;95288.89;;;8.82;87.26
6096;BME280;25081;42.698;23.298;2023-05-01T03:25:17;95298.28;;;8.92;86.80
6096;BME280;25081;42.698;23.298;2023-05-01T03:27:27;95299.61;;;8.92;86.47
6096;BME280;25081;42.698;23.298;2023-05-01T03:29:38;95294.11;;;8.80;87.01
6096;BME280;25081;42.698;23.298;2023-05-01T03:31:48;95293.81;;;8.79;87.36
6096;BME280;25081;42.698;23.298;2023-05-01T03:33:59;95306.89;;;8.80;87.49
6096;BME280;25081;42.698;23.298;2023-05-01T03:36:10;95303.30;;;8.77;87.55
6096;BME280;25081;42.698;23.298;2023-05-01T03:38:20;95305.67;;;8.70;88.23
6096;BME280;25081;42.698;23.298;2023-05-01T03:40:31;95300.95;;;8.39;89.66
6096;BME280;25081;42.698;23.298;2023-05-01T03:42:41;95307.56;;;8.25;90.85
6096;BME280;25081;42.698;23.298;2023-05-01T03:44:52;95316.45;;;8.22;91.30
6096;BME280;25081;42.698;23.298;2023-05-01T03:47:03;95316.95;;;8.15;91.77
6096;BME280;25081;42.698;23.298;2023-05-01T03:49:13;95320.83;;;8.12;92.16
6096;BME280;25081;42.698;23.298;2023-05-01T03:51:24;95318.37;;;8.17;92.46
6096;BME280;25081;42.698;23.298;2023-05-01T03:53:34;95323.78;;;8.20;92.35
6096;BME280;25081;42.698;23.298;2023-05-01T03:55:46;95323.28;;;8.27;92.18
6096;BME280;25081;42.698;23.298;2023-05-01T03:57:56;95321.38;;;8.38;91.75
6096;BME280;25081;42.698;23.298;2023-05-01T04:00:09;95331.53;;;8.52;91.35
6096;BME280;25081;42.698;23.298;2023-05-01T04:02:20;95331.03;;;8.59;90.30
6096;BME280;25081;42.698;23.298;2023-05-01T04:04:31;95331.22;;;8.64;90.32
6096;BME280;25081;42.698;23.298;2023-05-01T04:06:41;95335.22;;;8.71;90.16
6096;BME280;25081;42.698;23.298;2023-05-01T04:08:52;95329.36;;;8.78;89.68
6096;BME280;25081;42.698;23.298;2023-05-01T04:11:02;95331.81;;;8.86;89.43
6096;BME280;25081;42.698;23.298;2023-05-01T04:13:13;95332.84;;;8.85;89.35
6096;BME280;25081;42.698;23.298;2023-05-01T04:15:24;95331.94;;;8.88;89.18
6096;BME280;25081;42.698;23.298;2023-05-01T04:17:35;95334.57;;;8.95;88.97
6096;BME280;25081;42.698;23.298;2023-05-01T04:19:45;95334.90;;;8.89;88.92
6096;BME280;25081;42.698;23.298;2023-05-01T04:21:56;95335.17;;;8.97;88.64
6096;BME280;25081;42.698;23.298;2023-05-01T04:24:07;95333.64;;;9.05;88.63
6096;BME280;25081;42.698;23.298;2023-05-01T04:26:18;95340.38;;;9.14;88.40
6096;BME280;25081;42.698;23.298;2023-05-01T04:28:28;95337.89;;;9.26;87.93
6096;BME280;25081;42.698;23.298;2023-05-01T04:30:39;95340.67;;;9.29;87.33
6096;BME280;25081;42.698;23.298;2023-05-01T04:32:49;95344.75;;;9.31;87.08
6096;BME280;25081;42.698;23.298;2023-05-01T04:35:00;95344.17;;;9.58;87.25
6096;BME280;25081;42.698;23.298;2023-05-01T04:37:10;95342.86;;;9.74;85.93
6096;BME280;25081;42.698;23.298;2023-05-01T04:39:21;95341.26;;;9.95;84.85
6096;BME280;25081;42.698;23.298;2023-05-01T04:41:31;95339.65;;;9.88;84.16
6096;BME280;25081;42.698;23.298;2023-05-01T04:43:42;95343.59;;;9.72;84.63
6096;BME280;25081;42.698;23.298;2023-05-01T04:45:52;95344.69;;;9.80;85.00
6096;BME280;25081;42.698;23.298;2023-05-01T04:48:03;95350.52;;;9.86;84.28
6096;BME280;25081;42.698;23.298;2023-05-01T04:50:14;95346.30;;;9.88;84.18
6096;BME280;25081;42.698;23.298;2023-05-01T04:52:24;95339.88;;;10.02;83.73
6096;BME280;25081;42.698;23.298;2023-05-01T04:54:35;95337.67;;;10.15;83.51
6096;BME280;25081;42.698;23.298;2023-05-01T04:56:45;95342.81;;;10.64;82.93
6096;BME280;25081;42.698;23.298;2023-05-01T04:58:56;95341.58;;;11.43;78.92
6096;BME280;25081;42.698;23.298;2023-05-01T05:01:07;95342.29;;;12.45;74.22
6096;BME280;25081;42.698;23.298;2023-05-01T05:03:18;95342.78;;;13.07;70.45
6096;BME280;25081;42.698;23.298;2023-05-01T05:05:28;95345.48;;;13.30;69.16
6096;BME280;25081;42.698;23.298;2023-05-01T05:07:39;95344.31;;;13.87;67.78
6096;BME280;25081;42.698;23.298;2023-05-01T05:09:49;95344.46;;;15.45;64.57
6096;BME280;25081;42.698;23.298;2023-05-01T05:12:00;95347.98;;;15.84;60.93
6096;BME280;25081;42.698;23.298;2023-05-01T05:14:11;95343.17;;;17.11;57.32
6096;BME280;25081;42.698;23.298;2023-05-01T05:16:21;95341.66;;;17.17;55.34
6096;BME280;25081;42.698;23.298;2023-05-01T05:18:32;95341.66;;;17.65;54.03
6096;BME280;25081;42.698;23.298;2023-05-01T05:20:43;95353.98;;;18.53;52.35
6096;BME280;25081;42.698;23.298;2023-05-01T05:22:53;95355.73;;;18.17;52.20
6096;BME280;25081;42.698;23.298;2023-05-01T05:25:05;95360.09;;;18.33;51.86
6096;BME280;25081;42.698;23.298;2023-05-01T05:27:15;95364.38;;;19.12;50.67
6096;BME280;25081;42.698;23.298;2023-05-01T05:29:26;95362.19;;;19.75;48.50
6096;BME280;25081;42.698;23.298;2023-05-01T05:31:36;95362.41;;;20.01;48.02
6096;BME280;25081;42.698;23.298;2023-05-01T05:33:47;95363.48;;;20.08;47.01
6096;BME280;25081;42.698;23.298;2023-05-01T05:35:58;95364.42;;;20.50;45.75
6096;BME280;25081;42.698;23.298;2023-05-01T05:38:08;95367.30;;;18.12;50.19
6096;BME280;25081;42.698;23.298;2023-05-01T05:40:19;95369.43;;;16.96;53.81
6096;BME280;25081;42.698;23.298;2023-05-01T05:42:30;95369.69;;;16.43;55.77
6096;BME280;25081;42.698;23.298;2023-05-01T05:44:40;95370.11;;;17.83;53.82
6096;BME280;25081;42.698;23.298;2023-05-01T05:46:51;95367.62;;;19.24;50.01
6096;BME280;25081;42.698;23.298;2023-05-01T05:49:01;95369.92;;;20.22;46.86
6096;BME280;25081;42.698;23.298;2023-05-01T05:51:11;95366.62;;;20.93;44.83
6096;BME280;25081;42.698;23.298;2023-05-01T05:53:22;95363.61;;;21.38;43.75
6096;BME280;25081;42.698;23.298;2023-05-01T05:55:33;95364.64;;;21.03;44.78
6096;BME280;25081;42.698;23.298;2023-05-01T05:57:43;95369.71;;;20.73;45.12
6096;BME280;25081;42.698;23.298;2023-05-01T05:59:53;95363.45;;;21.20;44.45
6096;BME280;25081;42.698;23.298;2023-05-01T06:02:04;95365.31;;;21.61;43.61
6096;BME280;25081;42.698;23.298;2023-05-01T06:04:14;95364.70;;;22.67;41.16
6096;BME280;25081;42.698;23.298;2023-05-01T06:06:25;95368.55;;;23.41;39.41
6096;BME280;25081;42.698;23.298;2023-05-01T06:08:35;95369.23;;;23.85;38.26
6096;BME280;25081;42.698;23.298;2023-05-01T06:10:46;95371.53;;;23.26;40.07
6096;BME280;25081;42.698;23.298;2023-05-01T06:12:57;95372.91;;;23.91;38.27
6096;BME280;25081;42.698;23.298;2023-05-01T06:15:09;95375.63;;;24.51;36.92
6096;BME280;25081;42.698;23.298;2023-05-01T06:17:19;95376.73;;;24.20;37.72
6096;BME280;25081;42.698;23.298;2023-05-01T06:19:30;95379.19;;;22.39;40.88
6096;BME280;25081;42.698;23.298;2023-05-01T06:21:40;95374.84;;;22.83;40.63
6096;BME280;25081;42.698;23.298;2023-05-01T06:23:51;95371.69;;;23.32;39.84
6096;BME280;25081;42.698;23.298;2023-05-01T06:26:02;95373.95;;;23.44;39.61
6096;BME280;25081;42.698;23.298;2023-05-01T06:28:12;95380.05;;;23.38;39.99
6096;BME280;25081;42.698;23.298;2023-05-01T06:30:22;95373.87;;;22.95;40.04
6096;BME280;25081;42.698;23.298;2023-05-01T06:32:33;95380.31;;;23.21;40.49
6096;BME280;25081;42.698;23.298;2023-05-01T06:34:44;95370.67;;;23.80;39.19
6096;BME280;25081;42.698;23.298;2023-05-01T06:36:54;95379.80;;;23.19;38.88
6096;BME280;25081;42.698;23.298;2023-05-01T06:39:05;95382.77;;;21.10;43.32
6096;BME280;25081;42.698;23.298;2023-05-01T06:41:15;95383.61;;;22.11;41.96
6096;BME280;25081;42.698;23.298;2023-05-01T06:43:26;95394.81;;;20.29;45.16
6096;BME280;25081;42.698;23.298;2023-05-01T06:45:36;95382.50;;;20.63;45.41
6096;BME280;25081;42.698;23.298;2023-05-01T06:47:48;95378.84;;;22.45;42.16
6096;BME280;25081;42.698;23.298;2023-05-01T06:49:58;95378.59;;;23.79;39.03
6096;BME280;25081;42.698;23.298;2023-05-01T06:52:08;95379.30;;;23.33;39.81
6096;BME280;25081;42.698;23.298;2023-05-01T06:54:19;95376.53;;;23.35;39.54
6096;BME280;25081;42.698;23.298;2023-05-01T06:56:29;95376.44;;;23.24;39.57
6096;BME280;25081;42.698;23.298;2023-05-01T06:58:41;95376.78;;;24.18;38.46
6096;BME280;25081;42.698;23.298;2023-05-01T07:00:52;95380.94;;;24.84;36.40
6096;BME280;25081;42.698;23.298;2023-05-01T07:03:02;95374.25;;;25.51;35.11
6096;BME280;25081;42.698;23.298;2023-05-01T07:05:13;95379.56;;;25.23;34.87
6096;BME280;25081;42.698;23.298;2023-05-01T07:07:23;95382.78;;;21.50;42.04
6096;BME280;25081;42.698;23.298;2023-05-01T07:09:34;95398.70;;;19.55;46.99
6096;BME280;25081;42.698;23.298;2023-05-01T07:11:44;95396.77;;;20.04;46.40
6096;BME280;25081;42.698;23.298;2023-05-01T07:13:55;95389.13;;;20.91;44.90
6096;BME280;25081;42.698;23.298;2023-05-01T07:16:07;95387.67;;;22.35;42.80
6096;BME280;25081;42.698;23.298;2023-05-01T07:18:17;95387.52;;;22.93;40.97
6096;BME280;25081;42.698;23.298;2023-05-01T07:20:28;95388.51;;;24.02;39.26
6096;BME280;25081;42.698;23.298;2023-05-01T07:22:38;95389.14;;;24.57;36.90
6096;BME280;25081;42.698;23.298;2023-05-01T07:24:49;95390.50;;;24.57;37.22
6096;BME280;25081;42.698;23.298;2023-05-01T07:27:00;95391.22;;;24.18;37.45
6096;BME280;25081;42.698;23.298;2023-05-01T07:29:10;95388.85;;;24.14;37.68
6096;BME280;25081;42.698;23.298;2023-05-01T07:31:21;95388.23;;;25.25;35.74
6096;BME280;25081;42.698;23.298;2023-05-01T07:33:32;95385.01;;;26.12;34.33
6096;BME280;25081;42.698;23.298;2023-05-01T07:35:42;95378.31;;;26.87;33.08
6096;BME280;25081;42.698;23.298;2023-05-01T07:37:53;95381.53;;;27.78;31.31
6096;BME280;25081;42.698;23.298;2023-05-01T07:40:04;95382.43;;;27.76;31.52
6096;BME280;25081;42.698;23.298;2023-05-01T07:42:15;95383.56;;;27.75;30.86
6096;BME280;25081;42.698;23.298;2023-05-01T07:44:25;95379.91;;;27.59;30.84
6096;BME280;25081;42.698;23.298;2023-05-01T07:46:36;95379.07;;;27.70;30.71
6096;BME280;25081;42.698;23.298;2023-05-01T07:48:46;95378.58;;;26.96;30.57
6096;BME280;25081;42.698;23.298;2023-05-01T07:50:59;95391.92;;;24.54;34.99
6096;BME280;25081;42.698;23.298;2023-05-01T07:53:07;95388.72;;;23.40;36.97
6096;BME280;25081;42.698;23.298;2023-05-01T07:55:18;95390.48;;;23.31;37.56
6096;BME280;25081;42.698;23.298;2023-05-01T07:57:29;95385.30;;;22.73;38.46
6096;BME280;25081;42.698;23.298;2023-05-01T07:59:39;95383.38;;;22.28;39.48
6096;BME280;25081;42.698;23.298;2023-05-01T08:01:50;95382.39;;;23.45;38.25
6096;BME280;25081;42.698;23.298;2023-05-01T08:04:00;95378.89;;;24.90;36.07
6096;BME280;25081;42.698;23.298;2023-05-01T08:06:11;95373.52;;;26.44;32.43
6096;BME280;25081;42.698;23.298;2023-05-01T08:08:21;95371.96;;;27.43;31.81
6096;BME280;25081;42.698;23.298;2023-05-01T08:10:32;95372.95;;;27.97;30.36
6096;BME280;25081;42.698;23.298;2023-05-01T08:12:42;95376.61;;;27.08;31.11
6096;BME280;25081;42.698;23.298;2023-05-01T08:14:53;95376.16;;;26.07;33.47
6096;BME280;25081;42.698;23.298;2023-05-01T08:17:04;95372.63;;;26.37;32.98
6096;BME280;25081;42.698;23.298;2023-05-01T08:19:14;95373.55;;;27.09;31.33
6096;BME280;25081;42.698;23.298;2023-05-01T08:21:25;95381.86;;;23.43;35.12
6096;BME280;25081;42.698;23.298;2023-05-01T08:23:35;95380.36;;;23.18;36.79
6096;BME280;25081;42.698;23.298;2023-05-01T08:25:46;95381.03;;;22.22;38.60
6096;BME280;25081;42.698;23.298;2023-05-01T08:27:56;95378.75;;;24.45;35.75
6096;BME280;25081;42.698;23.298;2023-05-01T08:30:08;95368.51;;;25.28;33.63
6096;BME280;25081;42.698;23.298;2023-05-01T08:32:19;95369.61;;;26.16;33.25
6096;BME280;25081;42.698;23.298;2023-05-01T08:34:29;95375.52;;;26.10;32.21
6096;BME280;25081;42.698;23.298;2023-05-01T08:36:40;95373.95;;;26.77;30.51
6096;BME280;25081;42.698;23.298;2023-05-01T08:38:50;95373.41;;;24.78;34.40
6096;BME280;25081;42.698;23.298;2023-05-01T08:41:01;95381.04;;;24.24;34.15
6096;BME280;25081;42.698;23.298;2023-05-01T08:43:12;95375.23;;;22.28;36.13
6096;BME280;25081;42.698;23.298;2023-05-01T08:45:23;95375.36;;;23.41;34.22
6096;BME280;25081;42.698;23.298;2023-05-01T08:47:34;95369.16;;;23.38;34.50
6096;BME280;25081;42.698;23.298;2023-05-01T08:49:45;95364.63;;;25.31;32.86
6096;BME280;25081;42.698;23.298;2023-05-01T08:51:56;95354.19;;;26.60;30.54
6096;BME280;25081;42.698;23.298;2023-05-01T08:54:06;95353.80;;;27.79;28.59
6096;BME280;25081;42.698;23.298;2023-05-01T08:56:17;95358.64;;;28.61;27.62
6096;BME280;25081;42.698;23.298;2023-05-01T08:58:28;95359.69;;;28.92;26.90
6096;BME280;25081;42.698;23.298;2023-05-01T09:00:38;95358.63;;;26.39;29.01
6096;BME280;25081;42.698;23.298;2023-05-01T09:02:49;95369.13;;;23.90;33.52
6096;BME280;25081;42.698;23.298;2023-05-01T09:04:59;95358.05;;;25.32;32.51
6096;BME280;25081;42.698;23.298;2023-05-01T09:07:10;95360.05;;;26.05;31.49
6096;BME280;25081;42.698;23.298;2023-05-01T09:09:23;95355.02;;;26.30;30.75
6096;BME280;25081;42.698;23.298;2023-05-01T09:11:31;95358.11;;;22.95;35.39
6096;BME280;25081;42.698;23.298;2023-05-01T09:13:42;95365.55;;;22.22;36.73
6096;BME280;25081;42.698;23.298;2023-05-01T09:15:52;95361.20;;;23.91;35.03
6096;BME280;25081;42.698;23.298;2023-05-01T09:18:03;95357.50;;;24.83;33.60
6096;BME280;25081;42.698;23.298;2023-05-01T09:20:13;95361.13;;;25.28;32.97
6096;BME280;25081;42.698;23.298;2023-05-01T09:22:24;95360.01;;;23.67;33.04
6096;BME280;25081;42.698;23.298;2023-05-01T09:24:34;95359.55;;;22.90;34.57
6096;BME280;25081;42.698;23.298;2023-05-01T09:26:45;95374.63;;;22.79;35.10
6096;BME280;25081;42.698;23.298;2023-05-01T09:28:56;95362.83;;;22.65;36.48
6096;BME280;25081;42.698;23.298;2023-05-01T09:31:22;95377.59;;;21.17;38.43
6096;BME280;25081;42.698;23.298;2023-05-01T09:33:33;95375.12;;;20.09;40.80
6096;BME280;25081;42.698;23.298;2023-05-01T09:35:50;95371.82;;;20.17;41.01
6096;BME280;25081;42.698;23.298;2023-05-01T09:38:01;95369.27;;;21.45;39.71
6096;BME280;25081;42.698;23.298;2023-05-01T09:40:13;95363.76;;;22.77;37.56
6096;BME280;25081;42.698;23.298;2023-05-01T09:42:25;95362.02;;;22.22;39.12
6096;BME280;25081;42.698;23.298;2023-05-01T09:44:41;95364.77;;;23.75;36.84
6096;BME280;25081;42.698;23.298;2023-05-01T09:46:52;95362.84;;;22.87;37.11
6096;BME280;25081;42.698;23.298;2023-05-01T09:49:02;95355.23;;;23.24;35.95
6096;BME280;25081;42.698;23.298;2023-05-01T09:51:23;95366.14;;;23.75;34.25
6096;BME280;25081;42.698;23.298;2023-05-01T09:53:38;95367.83;;;22.13;38.26
6096;BME280;25081;42.698;23.298;2023-05-01T09:55:59;95362.13;;;23.19;36.85
6096;BME280;25081;42.698;23.298;2023-05-01T09:58:17;95364.23;;;22.63;36.65
6096;BME280;25081;42.698;23.298;2023-05-01T10:00:27;95361.56;;;23.35;36.44
6096;BME280;25081;42.698;23.298;2023-05-01T10:02:39;95351.30;;;23.81;34.73
6096;BME280;25081;42.698;23.298;2023-05-01T10:04:49;95356.31;;;23.90;34.06
6096;BME280;25081;42.698;23.298;2023-05-01T10:07:10;95346.81;;;24.04;33.15
6096;BME280;25081;42.698;23.298;2023-05-01T10:09:28;95338.77;;;24.54;33.07
6096;BME280;25081;42.698;23.298;2023-05-01T10:11:51;95341.02;;;24.88;31.83
6096;BME280;25081;42.698;23.298;2023-05-01T10:14:08;95339.86;;;24.92;31.56
6096;BME280;25081;42.698;23.298;2023-05-01T10:16:28;95341.01;;;24.08;31.90
6096;BME280;25081;42.698;23.298;2023-05-01T10:18:39;95338.42;;;23.38;34.03
6096;BME280;25081;42.698;23.298;2023-05-01T10:20:49;95338.34;;;23.24;34.93
6096;BME280;25081;42.698;23.298;2023-05-01T10:23:00;95337.17;;;23.65;34.25
6096;BME280;25081;42.698;23.298;2023-05-01T10:25:11;95342.30;;;20.85;39.22
6096;BME280;25081;42.698;23.298;2023-05-01T10:27:22;95339.83;;;22.15;35.71
6096;BME280;25081;42.698;23.298;2023-05-01T10:29:32;95343.06;;;23.70;34.48
6096;BME280;25081;42.698;23.298;2023-05-01T10:31:43;95348.20;;;22.82;37.35
6096;BME280;25081;42.698;23.298;2023-05-01T10:33:54;95339.16;;;23.60;36.63
6096;BME280;25081;42.698;23.298;2023-05-01T10:36:05;95340.54;;;23.74;35.79
6096;BME280;25081;42.698;23.298;2023-05-01T10:38:21;95328.80;;;24.19;34.55
6096;BME280;25081;42.698;23.298;2023-05-01T10:40:47;95327.27;;;24.68;33.68
6096;BME280;25081;42.698;23.298;2023-05-01T10:43:14;95331.36;;;24.43;33.69
6096;BME280;25081;42.698;23.298;2023-05-01T10:45:31;95345.54;;;23.69;34.77
6096;BME280;25081;42.698;23.298;2023-05-01T10:47:45;95344.05;;;21.73;38.06
6096;BME280;25081;42.698;23.298;2023-05-01T10:50:05;95332.22;;;20.91;39.83
6096;BME280;25081;42.698;23.298;2023-05-01T10:52:16;95342.23;;;21.34;38.53
6096;BME280;25081;42.698;23.298;2023-05-01T10:54:27;95343.91;;;21.25;37.14
6096;BME280;25081;42.698;23.298;2023-05-01T10:56:43;95336.59;;;20.86;37.59
6096;BME280;25081;42.698;23.298;2023-05-01T10:58:58;95337.75;;;21.12;37.14
6096;BME280;25081;42.698;23.298;2023-05-01T11:01:32;95326.78;;;21.88;36.30
6096;BME280;25081;42.698;23.298;2023-05-01T11:03:42;95324.70;;;23.10;34.05
6096;BME280;25081;42.698;23.298;2023-05-01T11:08:42;95328.55;;;22.69;34.69
6096;BME280;25081;42.698;23.298;2023-05-01T11:10:56;95339.54;;;22.38;35.28
6096;BME280;25081;42.698;23.298;2023-05-01T11:13:12;95323.94;;;22.67;35.05
6096;BME280;25081;42.698;23.298;2023-05-01T11:15:29;95329.08;;;22.50;35.62
6096;BME280;25081;42.698;23.298;2023-05-01T11:17:46;95322.50;;;22.94;34.38
6096;BME280;25081;42.698;23.298;2023-05-01T11:19:57;95320.41;;;21.47;36.31
6096;BME280;25081;42.698;23.298;2023-05-01T11:22:12;95328.80;;;22.04;36.45
6096;BME280;25081;42.698;23.298;2023-05-01T11:24:31;95329.35;;;22.27;35.73
6096;BME280;25081;42.698;23.298;2023-05-01T11:26:41;95328.35;;;21.67;36.32
6096;BME280;25081;42.698;23.298;2023-05-01T11:28:53;95331.32;;;21.39;36.58
6096;BME280;25081;42.698;23.298;2023-05-01T11:31:02;95331.41;;;20.90;36.95
6096;BME280;25081;42.698;23.298;2023-05-01T11:33:13;95333.21;;;20.61;36.43
6096;BME280;25081;42.698;23.298;2023-05-01T11:35:24;95342.46;;;20.99;36.83
6096;BME280;25081;42.698;23.298;2023-05-01T11:37:42;95333.34;;;21.26;36.21
6096;BME280;25081;42.698;23.298;2023-05-01T11:39:52;95328.28;;;21.99;35.71
6096;BME280;25081;42.698;23.298;2023-05-01T11:42:08;95325.14;;;22.40;34.66
6096;BME280;25081;42.698;23.298;2023-05-01T11:44:19;95321.61;;;22.58;34.04
6096;BME280;25081;42.698;23.298;2023-05-01T11:46:30;95321.09;;;21.87;35.39
6096;BME280;25081;42.698;23.298;2023-05-01T11:50:58;95324.25;;;21.41;35.86